createdAt,value
2022-08-27T00:00:14.530Z,99.993896
2022-08-27T00:01:23.187Z,99.993896
2022-08-27T00:02:32.851Z,99.993896
2022-08-27T00:03:40.507Z,99.993896
2022-08-27T00:04:48.300Z,99.993896
2022-08-27T00:05:57.964Z,99.993896
2022-08-27T00:07:06.607Z,99.993896
2022-08-27T00:08:15.283Z,99.993896
2022-08-27T00:09:26.942Z,99.993896
2022-08-27T00:10:34.595Z,99.993896
2022-08-27T00:11:44.294Z,99.993896
2022-08-27T00:12:51.963Z,99.993896
2022-08-27T00:13:59.618Z,99.993896
2022-08-27T00:15:09.284Z,99.993896
2022-08-27T00:16:19.015Z,99.993896
2022-08-27T00:17:27.626Z,99.993896
2022-08-27T00:18:36.284Z,99.993896
2022-08-27T00:19:44.932Z,99.993896
2022-08-27T00:20:54.606Z,99.993896
2022-08-27T00:22:02.327Z,99.993896
2022-08-27T00:23:09.997Z,99.993896
2022-08-27T00:24:19.671Z,99.993896
2022-08-27T00:25:29.349Z,99.993896
2022-08-27T00:26:42.711Z,99.993896
2022-08-27T00:27:48.698Z,99.993896
2022-08-27T00:28:58.369Z,99.993896
2022-08-27T00:30:08.065Z,99.993896
2022-08-27T00:31:17.786Z,99.993896
2022-08-27T00:32:26.377Z,99.993896
2022-08-27T00:33:36.079Z,99.993896
2022-08-27T00:34:44.730Z,99.993896
2022-08-27T00:35:53.398Z,99.993896
2022-08-27T00:37:02.058Z,99.993896
2022-08-27T00:38:10.862Z,99.993896
2022-08-27T00:39:20.480Z,99.993896
2022-08-27T00:40:28.203Z,99.993896
2022-08-27T00:41:36.813Z,99.993896
2022-08-27T00:42:46.476Z,99.993896
2022-08-27T00:43:55.129Z,99.993896
2022-08-27T00:45:03.840Z,99.993896
2022-08-27T00:46:13.568Z,99.993896
2022-08-27T00:47:22.180Z,99.993896
2022-08-27T00:48:31.903Z,99.993896
2022-08-27T00:49:40.570Z,99.993896
2022-08-27T00:50:49.244Z,99.993896
2022-08-27T00:51:58.921Z,99.993896
2022-08-27T00:53:07.588Z,99.993896
2022-08-27T00:54:18.808Z,99.993896
2022-08-27T00:55:26.922Z,99.993896
2022-08-27T00:56:35.597Z,99.993896
2022-08-27T00:57:45.285Z,99.993896
2022-08-27T00:58:53.978Z,99.993896
2022-08-27T01:00:02.649Z,99.993896
2022-08-27T01:01:12.354Z,99.993896
2022-08-27T01:02:22.100Z,99.993896
2022-08-27T01:03:30.729Z,99.993896
2022-08-27T01:04:39.395Z,99.993896
2022-08-27T01:05:49.049Z,99.993896
2022-08-27T01:06:58.739Z,99.993896
2022-08-27T01:08:06.588Z,99.993896
2022-08-27T01:09:14.196Z,99.993896
2022-08-27T01:10:23.858Z,99.993896
2022-08-27T01:11:32.508Z,99.993896
2022-08-27T01:12:41.172Z,99.993896
2022-08-27T01:13:59.456Z,99.993896
2022-08-27T01:15:00.460Z,99.993896
2022-08-27T01:16:10.169Z,99.993896
2022-08-27T01:17:16.809Z,99.993896
2022-08-27T01:18:24.459Z,99.993896
2022-08-27T01:19:34.161Z,99.993896
2022-08-27T01:20:42.847Z,99.993896
2022-08-27T01:21:51.484Z,99.993896
2022-08-27T01:23:00.146Z,99.993896
2022-08-27T01:24:08.821Z,99.993896
2022-08-27T01:25:18.534Z,99.993896
2022-08-27T01:26:27.214Z,99.993896
2022-08-27T01:27:35.919Z,99.993896
2022-08-27T01:28:45.579Z,99.993896
2022-08-27T01:29:54.270Z,99.993896
2022-08-27T01:31:03.116Z,99.993896
2022-08-27T01:32:11.745Z,99.993896
2022-08-27T01:33:20.401Z,99.993896
2022-08-27T01:34:30.082Z,99.993896
2022-08-27T01:35:40.134Z,99.993896
2022-08-27T01:36:45.387Z,99.993896
2022-08-27T01:37:56.940Z,99.993896
2022-08-27T01:39:05.420Z,99.993896
2022-08-27T01:40:14.429Z,99.993896
2022-08-27T01:41:25.038Z,99.993896
2022-08-27T01:42:34.725Z,99.993896
2022-08-27T01:43:44.371Z,99.993896
2022-08-27T01:44:53.022Z,99.993896
2022-08-27T01:46:01.675Z,99.993896
2022-08-27T01:47:11.369Z,99.993896
2022-08-27T01:48:21.094Z,99.993896
2022-08-27T01:49:30.797Z,99.993896
2022-08-27T01:50:39.467Z,99.993896
2022-08-27T01:51:48.138Z,99.993896
2022-08-27T01:52:56.807Z,99.993896
2022-08-27T01:54:05.494Z,99.993896
2022-08-27T01:55:15.157Z,99.993896
2022-08-27T01:56:22.814Z,99.993896
2022-08-27T01:57:31.509Z,99.993896
2022-08-27T01:58:41.189Z,99.993896
2022-08-27T01:59:49.975Z,99.993896
2022-08-27T02:00:58.687Z,99.993896
2022-08-27T02:02:07.363Z,99.993896
2022-08-27T02:03:17.006Z,99.993896
2022-08-27T02:04:25.650Z,99.993896
2022-08-27T02:05:39.416Z,99.993896
2022-08-27T02:06:43.991Z,99.993896
2022-08-27T02:07:53.682Z,99.993896
2022-08-27T02:09:02.395Z,99.993896
2022-08-27T02:10:11.064Z,99.993896
2022-08-27T02:11:20.853Z,99.993896
2022-08-27T02:12:29.502Z,99.993896
2022-08-27T02:13:39.189Z,99.993896
2022-08-27T02:14:46.853Z,99.993896
2022-08-27T02:15:55.606Z,99.993896
2022-08-27T02:17:05.277Z,99.993896
2022-08-27T02:18:13.933Z,99.993896
2022-08-27T02:19:22.602Z,99.993896
2022-08-27T02:20:32.255Z,99.993896
2022-08-27T02:21:41.928Z,99.993896
2022-08-27T02:22:51.684Z,99.993896
2022-08-27T02:24:00.378Z,99.993896
2022-08-27T02:25:10.282Z,99.993896
2022-08-27T02:26:19.713Z,99.993896
2022-08-27T02:27:28.405Z,99.993896
2022-08-27T02:28:37.101Z,99.993896
2022-08-27T02:29:46.057Z,99.993896
2022-08-27T02:30:54.405Z,99.993896
2022-08-27T02:32:04.080Z,99.993896
2022-08-27T02:33:13.738Z,99.993896
2022-08-27T02:34:21.509Z,99.993896
2022-08-27T02:35:31.181Z,99.993896
2022-08-27T02:36:40.848Z,99.993896
2022-08-27T02:37:49.513Z,99.993896
2022-08-27T02:38:58.174Z,99.993896
2022-08-27T02:40:06.910Z,99.993896
2022-08-27T02:41:16.535Z,99.993896
2022-08-27T02:42:24.186Z,99.993896
2022-08-27T02:43:31.842Z,99.993896
2022-08-27T02:44:41.535Z,99.993896
2022-08-27T02:45:50.238Z,99.993896
2022-08-27T02:47:00.002Z,99.993896
2022-08-27T02:48:08.667Z,99.993896
2022-08-27T02:49:17.251Z,99.993896
2022-08-27T02:50:27.476Z,99.993896
2022-08-27T02:51:35.615Z,99.993896
2022-08-27T02:52:43.272Z,99.993896
2022-08-27T02:53:52.936Z,99.993896
2022-08-27T02:55:02.618Z,99.993896
2022-08-27T02:56:11.274Z,99.993896
2022-08-27T02:57:20.959Z,99.993896
2022-08-27T02:58:29.619Z,99.993896
2022-08-27T02:59:40.283Z,99.993896
2022-08-27T03:00:47.942Z,99.993896
2022-08-27T03:01:56.671Z,99.993896
2022-08-27T03:03:06.310Z,99.993896
2022-08-27T03:04:14.991Z,99.993896
2022-08-27T03:05:24.635Z,99.993896
2022-08-27T03:06:32.302Z,99.993896
2022-08-27T03:07:40.957Z,99.993896
2022-08-27T03:08:50.746Z,99.993896
2022-08-27T03:09:59.311Z,99.993896
2022-08-27T03:11:07.971Z,99.993896
2022-08-27T03:12:17.621Z,99.993896
2022-08-27T03:13:27.308Z,99.993896
2022-08-27T03:14:36.124Z,99.993896
2022-08-27T03:15:44.827Z,99.993896
2022-08-27T03:16:53.454Z,99.993896
2022-08-27T03:18:03.241Z,99.993896
2022-08-27T03:19:12.786Z,99.993896
2022-08-27T03:20:21.532Z,99.993896
2022-08-27T03:21:31.197Z,99.993896
2022-08-27T03:22:39.852Z,99.993896
2022-08-27T03:23:49.529Z,99.993896
2022-08-27T03:24:58.206Z,99.993896
2022-08-27T03:26:07.924Z,99.993896
2022-08-27T03:27:17.628Z,99.993896
2022-08-27T03:28:26.293Z,99.993896
2022-08-27T03:29:35.942Z,99.993896
2022-08-27T03:30:45.607Z,99.993896
2022-08-27T03:31:54.299Z,99.993896
2022-08-27T03:33:02.981Z,99.993896
2022-08-27T03:34:12.645Z,99.993896
2022-08-27T03:35:21.338Z,99.993896
2022-08-27T03:36:31.063Z,99.993896
2022-08-27T03:37:38.864Z,99.993896
2022-08-27T03:38:46.530Z,99.993896
2022-08-27T03:39:56.288Z,99.993896
2022-08-27T03:41:04.867Z,99.993896
2022-08-27T03:42:13.540Z,99.993896
2022-08-27T03:43:23.230Z,99.993896
2022-08-27T03:44:31.919Z,99.993896
2022-08-27T03:45:48.560Z,99.993896
2022-08-27T03:46:51.304Z,99.993896
2022-08-27T03:47:59.863Z,99.993896
2022-08-27T03:49:09.579Z,99.993896
2022-08-27T03:50:17.325Z,99.993896
2022-08-27T03:51:27.007Z,99.993896
2022-08-27T03:52:35.665Z,99.993896
2022-08-27T03:53:44.344Z,99.993896
2022-08-27T03:54:53.039Z,99.993896
2022-08-27T03:56:02.688Z,99.993896
2022-08-27T03:57:12.407Z,99.993896
2022-08-27T03:58:21.077Z,99.993896
2022-08-27T03:59:28.737Z,99.993896
2022-08-27T04:00:38.448Z,99.993896
2022-08-27T04:01:47.148Z,99.993896
2022-08-27T04:02:56.833Z,99.993896
2022-08-27T04:04:05.470Z,99.993896
2022-08-27T04:05:14.145Z,99.993896
2022-08-27T04:06:23.838Z,99.993896
2022-08-27T04:07:32.498Z,99.993896
2022-08-27T04:08:41.166Z,99.993896
2022-08-27T04:09:50.826Z,99.993896
2022-08-27T04:10:59.501Z,99.993896
2022-08-27T04:12:07.202Z,99.993896
2022-08-27T04:13:16.865Z,99.993896
2022-08-27T04:14:27.599Z,99.993896
2022-08-27T04:15:39.555Z,99.993896
2022-08-27T04:16:45.865Z,99.993896
2022-08-27T04:17:54.561Z,99.993896
2022-08-27T04:19:04.629Z,99.993896
2022-08-27T04:20:34.390Z,99.993896
2022-08-27T04:21:23.991Z,99.993896
2022-08-27T04:22:31.659Z,99.993896
2022-08-27T04:23:40.361Z,99.993896
2022-08-27T04:24:50.059Z,99.993896
2022-08-27T04:25:57.711Z,99.993896
2022-08-27T04:27:06.392Z,99.993896
2022-08-27T04:28:16.059Z,99.993896
2022-08-27T04:29:24.719Z,99.993896
2022-08-27T04:30:33.396Z,99.993896
2022-08-27T04:31:42.139Z,99.993896
2022-08-27T04:32:50.795Z,99.993896
2022-08-27T04:34:00.428Z,99.993896
2022-08-27T04:35:08.120Z,99.993896
2022-08-27T04:36:17.776Z,99.993896
2022-08-27T04:37:27.441Z,99.993896
2022-08-27T04:38:36.071Z,99.993896
2022-08-27T04:39:49.805Z,99.993896
2022-08-27T04:40:55.503Z,99.993896
2022-08-27T04:42:04.170Z,99.993896
2022-08-27T04:43:12.852Z,99.993896
2022-08-27T04:44:22.475Z,99.993896
2022-08-27T04:45:31.139Z,99.993896
2022-08-27T04:46:40.920Z,99.993896
2022-08-27T04:47:51.525Z,99.993896
2022-08-27T04:49:00.188Z,99.993896
2022-08-27T04:50:09.850Z,99.993896
2022-08-27T04:51:19.495Z,99.993896
2022-08-27T04:52:29.177Z,99.993896
2022-08-27T04:53:36.852Z,99.993896
2022-08-27T04:54:44.502Z,99.993896
2022-08-27T04:55:54.176Z,99.993896
2022-08-27T04:57:02.838Z,99.993896
2022-08-27T04:58:12.583Z,99.993896
2022-08-27T04:59:21.196Z,99.993896
2022-08-27T05:00:29.861Z,99.993896
2022-08-27T05:01:39.552Z,99.993896
2022-08-27T05:02:48.184Z,99.993896
2022-08-27T05:03:56.879Z,99.993896
2022-08-27T05:05:06.560Z,99.993896
2022-08-27T05:06:17.193Z,99.993896
2022-08-27T05:07:25.905Z,99.993896
2022-08-27T05:08:34.569Z,99.993896
2022-08-27T05:09:43.283Z,99.993896
2022-08-27T05:10:54.015Z,99.993896
2022-08-27T05:12:02.686Z,99.993896
2022-08-27T05:13:10.343Z,99.993896
2022-08-27T05:14:20.030Z,99.993896
2022-08-27T05:15:28.709Z,99.993896
2022-08-27T05:16:37.374Z,99.993896
2022-08-27T05:17:47.038Z,99.993896
2022-08-27T05:18:55.675Z,99.993896
2022-08-27T05:20:05.377Z,99.993896
2022-08-27T05:21:14.060Z,99.993896
2022-08-27T05:22:21.710Z,99.993896
2022-08-27T05:23:31.382Z,99.993896
2022-08-27T05:24:42.022Z,99.993896
2022-08-27T05:25:51.665Z,99.993896
2022-08-27T05:27:00.351Z,99.993896
2022-08-27T05:28:09.214Z,99.993896
2022-08-27T05:29:18.697Z,99.993896
2022-08-27T05:30:26.412Z,99.993896
2022-08-27T05:31:34.169Z,99.993896
2022-08-27T05:32:43.830Z,99.993896
2022-08-27T05:33:52.478Z,99.993896
2022-08-27T05:35:02.130Z,99.993896
2022-08-27T05:36:10.809Z,99.993896
2022-08-27T05:37:19.463Z,99.993896
2022-08-27T05:38:29.161Z,99.993896
2022-08-27T05:39:37.892Z,99.993896
2022-08-27T05:40:45.546Z,99.993896
2022-08-27T05:41:55.221Z,99.993896
2022-08-27T05:43:04.027Z,99.993896
2022-08-27T05:44:39.368Z,99.993896
2022-08-27T05:45:24.473Z,99.993896
2022-08-27T05:46:33.186Z,99.993896
2022-08-27T05:47:44.494Z,99.993896
2022-08-27T05:48:51.435Z,99.993896
2022-08-27T05:50:01.135Z,99.993896
2022-08-27T05:51:10.809Z,99.993896
2022-08-27T05:52:21.501Z,99.993896
2022-08-27T05:53:31.153Z,99.993896
2022-08-27T05:54:39.851Z,99.993896
2022-08-27T05:55:48.511Z,99.993896
2022-08-27T05:56:57.162Z,99.993896
2022-08-27T05:58:05.827Z,99.993896
2022-08-27T05:59:15.493Z,99.993896
2022-08-27T06:00:25.182Z,99.993896
2022-08-27T06:01:33.892Z,99.993896
2022-08-27T06:02:43.607Z,99.993896
2022-08-27T06:03:52.195Z,99.993896
2022-08-27T06:05:01.996Z,99.993896
2022-08-27T06:06:11.546Z,99.993896
2022-08-27T06:07:20.238Z,99.993896
2022-08-27T06:08:29.922Z,99.993896
2022-08-27T06:09:37.581Z,99.993896
2022-08-27T06:10:45.244Z,99.993896
2022-08-27T06:11:54.918Z,99.993896
2022-08-27T06:13:03.577Z,99.993896
2022-08-27T06:14:12.240Z,99.993896
2022-08-27T06:15:20.923Z,99.993896
2022-08-27T06:16:29.596Z,99.993896
2022-08-27T06:17:39.289Z,99.993896
2022-08-27T06:18:46.965Z,99.993896
2022-08-27T06:19:54.621Z,99.993896
2022-08-27T06:21:04.284Z,99.993896
2022-08-27T06:22:12.927Z,99.993896
2022-08-27T06:23:27.840Z,99.993896
2022-08-27T06:24:33.369Z,99.993896
2022-08-27T06:25:43.082Z,99.993896
2022-08-27T06:26:52.799Z,99.993896
2022-08-27T06:28:01.473Z,99.993896
2022-08-27T06:29:11.123Z,99.993896
2022-08-27T06:30:20.837Z,99.993896
2022-08-27T06:31:29.541Z,99.993896
2022-08-27T06:32:38.155Z,99.993896
2022-08-27T06:33:46.825Z,99.993896
2022-08-27T06:34:55.486Z,99.993896
2022-08-27T06:36:06.174Z,99.993896
2022-08-27T06:37:13.829Z,99.993896
2022-08-27T06:38:22.490Z,99.993896
2022-08-27T06:39:32.164Z,99.993896
2022-08-27T06:40:40.809Z,99.993896
2022-08-27T06:41:50.518Z,99.993896
2022-08-27T06:42:59.185Z,99.993896
2022-08-27T06:44:07.873Z,99.993896
2022-08-27T06:45:17.568Z,99.993896
2022-08-27T06:46:26.266Z,99.993896
2022-08-27T06:47:34.112Z,99.993896
2022-08-27T06:48:43.791Z,99.993896
2022-08-27T06:49:52.449Z,99.993896
2022-08-27T06:51:01.101Z,99.993896
2022-08-27T06:52:09.781Z,99.902344
2022-08-27T06:53:19.481Z,99.902344
2022-08-27T06:54:29.142Z,99.707031
2022-08-27T06:55:37.339Z,99.755859
2022-08-27T06:56:45.459Z,99.755859
2022-08-27T06:57:55.114Z,99.658203
2022-08-27T06:59:03.813Z,99.353027
2022-08-27T07:00:13.451Z,99.353027
2022-08-27T07:01:22.150Z,99.053955
2022-08-27T07:02:30.827Z,98.352051
2022-08-27T07:03:40.470Z,98.803711
2022-08-27T07:04:49.204Z,98.651123
2022-08-27T07:05:57.861Z,99.206543
2022-08-27T07:07:07.520Z,99.206543
2022-08-27T07:08:17.183Z,98.803711
2022-08-27T07:09:25.833Z,98.602295
2022-08-27T07:10:34.516Z,98.504639
2022-08-27T07:11:43.172Z,98.449707
2022-08-27T07:12:52.857Z,98.651123
2022-08-27T07:14:00.519Z,98.852539
2022-08-27T07:15:08.175Z,98.748779
2022-08-27T07:16:17.970Z,98.852539
2022-08-27T07:17:27.615Z,98.803711
2022-08-27T07:18:37.278Z,98.303223
2022-08-27T07:19:46.931Z,98.303223
2022-08-27T07:20:55.697Z,98.504639
2022-08-27T07:22:05.482Z,98.504639
2022-08-27T07:23:13.150Z,98.303223
2022-08-27T07:24:20.831Z,98.303223
2022-08-27T07:25:30.513Z,98.504639
2022-08-27T07:26:39.175Z,98.303223
2022-08-27T07:27:48.975Z,98.455811
2022-08-27T07:28:57.688Z,98.455811
2022-08-27T07:30:06.331Z,98.254395
2022-08-27T07:31:16.070Z,98.052979
2022-08-27T07:32:25.895Z,97.65625
2022-08-27T07:33:34.317Z,97.351074
2022-08-27T07:34:43.999Z,97.753906
2022-08-27T07:35:52.660Z,97.851562
2022-08-27T07:37:01.317Z,98.156738
2022-08-27T07:38:10.190Z,97.851562
2022-08-27T07:39:18.716Z,97.753906
2022-08-27T07:40:28.441Z,97.808838
2022-08-27T07:41:36.059Z,98.21167
2022-08-27T07:42:44.714Z,97.003174
2022-08-27T07:43:55.106Z,97.406006
2022-08-27T07:45:03.105Z,97.30835
2022-08-27T07:46:12.760Z,97.20459
2022-08-27T07:47:22.423Z,97.149658
2022-08-27T07:48:32.094Z,97.351074
2022-08-27T07:49:41.731Z,97.149658
2022-08-27T07:50:50.618Z,97.454834
2022-08-27T07:52:00.290Z,97.65625
2022-08-27T07:53:07.958Z,97.253418
2022-08-27T07:54:16.611Z,97.55249
2022-08-27T07:55:26.366Z,97.454834
2022-08-27T07:56:35.076Z,97.351074
2022-08-27T07:57:43.786Z,97.351074
2022-08-27T07:58:53.479Z,96.54541
2022-08-27T08:00:02.161Z,96.447754
2022-08-27T08:01:11.850Z,96.54541
2022-08-27T08:02:20.554Z,96.64917
2022-08-27T08:03:29.194Z,96.850586
2022-08-27T08:04:38.862Z,96.801758
2022-08-27T08:05:48.515Z,96.30127
2022-08-27T08:06:58.174Z,96.30127
2022-08-27T08:08:06.951Z,96.405029
2022-08-27T08:09:15.551Z,96.099854
2022-08-27T08:10:25.234Z,96.258545
2022-08-27T08:11:32.871Z,95.452881
2022-08-27T08:12:41.553Z,94.952393
2022-08-27T08:13:51.259Z,94.848633
2022-08-27T08:14:59.927Z,94.750977
2022-08-27T08:16:08.613Z,94.451904
2022-08-27T08:17:18.353Z,94.30542
2022-08-27T08:18:26.978Z,94.20166
2022-08-27T08:19:36.668Z,94.30542
2022-08-27T08:20:57.410Z,94.30542
2022-08-27T08:21:59.547Z,94.561768
2022-08-27T08:23:09.674Z,94.415283
2022-08-27T08:24:16.276Z,92.810059
2022-08-27T08:25:25.957Z,92.608643
2022-08-27T08:26:35.611Z,91.265869
2022-08-27T08:27:45.293Z,91.864014
2022-08-27T08:28:54.963Z,91.522217
2022-08-27T08:30:03.638Z,90.222168
2022-08-27T08:31:11.537Z,91.418457
2022-08-27T08:32:21.140Z,90.020752
2022-08-27T08:33:30.831Z,90.020752
2022-08-27T08:34:39.514Z,89.916992
2022-08-27T08:35:49.198Z,89.916992
2022-08-27T08:36:57.884Z,89.72168
2022-08-27T08:38:07.606Z,89.318848
2022-08-27T08:39:15.204Z,89.019775
2022-08-27T08:40:24.026Z,89.117432
2022-08-27T08:41:33.555Z,90.618896
2022-08-27T08:42:42.232Z,90.41748
2022-08-27T08:43:51.933Z,90.374756
2022-08-27T08:45:01.554Z,89.61792
2022-08-27T08:46:10.255Z,88.415527
2022-08-27T08:47:19.855Z,91.021729
2022-08-27T08:48:28.540Z,90.722656
2022-08-27T08:49:36.196Z,90.374756
2022-08-27T08:50:45.857Z,90.2771
2022-08-27T08:51:54.495Z,88.977051
2022-08-27T08:53:03.185Z,89.978027
2022-08-27T08:54:12.994Z,90.875244
2022-08-27T08:55:22.652Z,89.776611
2022-08-27T08:56:32.323Z,88.873291
2022-08-27T08:57:40.992Z,89.178467
2022-08-27T08:58:49.643Z,88.934326
2022-08-27T09:00:00.331Z,88.330078
2022-08-27T09:01:09.065Z,89.031982
2022-08-27T09:02:17.653Z,88.232422
2022-08-27T09:03:27.345Z,86.132812
2022-08-27T09:04:37.016Z,86.291504
2022-08-27T09:05:46.717Z,86.889648
2022-08-27T09:06:55.376Z,86.590576
2022-08-27T09:08:28.819Z,87.188721
2022-08-27T09:09:15.663Z,86.49292
2022-08-27T09:10:25.341Z,87.390137
2022-08-27T09:11:35.031Z,87.530518
2022-08-27T09:12:43.696Z,88.476562
2022-08-27T09:13:53.395Z,89.575195
2022-08-27T09:15:03.123Z,89.575195
2022-08-27T09:16:12.818Z,89.434814
2022-08-27T09:17:20.471Z,89.031982
2022-08-27T09:18:31.135Z,87.93335
2022-08-27T09:19:41.185Z,87.432861
2022-08-27T09:20:49.464Z,87.82959
2022-08-27T09:21:58.141Z,88.73291
2022-08-27T09:23:07.828Z,88.787842
2022-08-27T09:24:17.482Z,87.390137
2022-08-27T09:25:25.367Z,86.846924
2022-08-27T09:26:32.787Z,87.548828
2022-08-27T09:27:42.443Z,86.450195
2022-08-27T09:28:51.122Z,85.60791
2022-08-27T09:29:59.781Z,85.211182
2022-08-27T09:31:09.515Z,85.107422
2022-08-27T09:32:18.093Z,85.308838
2022-08-27T09:33:27.747Z,84.967041
2022-08-27T09:34:38.557Z,84.710693
2022-08-27T09:35:47.233Z,84.771729
2022-08-27T09:36:56.886Z,83.911133
2022-08-27T09:38:06.546Z,85.009766
2022-08-27T09:39:15.230Z,85.107422
2022-08-27T09:40:23.955Z,84.307861
2022-08-27T09:41:33.345Z,84.16748
2022-08-27T09:42:42.273Z,84.869385
2022-08-27T09:43:52.914Z,83.770752
2022-08-27T09:45:01.604Z,83.972168
2022-08-27T09:46:10.350Z,84.16748
2022-08-27T09:47:18.958Z,83.569336
2022-08-27T09:48:28.616Z,83.508301
2022-08-27T09:49:37.277Z,83.972168
2022-08-27T09:50:46.952Z,84.570312
2022-08-27T09:51:55.650Z,84.033203
2022-08-27T09:53:04.312Z,83.728027
2022-08-27T09:54:13.969Z,82.794189
2022-08-27T09:55:21.618Z,82.794189
2022-08-27T09:56:30.269Z,82.556152
2022-08-27T09:57:40.173Z,82.019043
2022-08-27T09:58:49.837Z,81.182861
2022-08-27T09:59:58.546Z,79.388428
2022-08-27T10:01:07.185Z,80.181885
2022-08-27T10:02:16.821Z,79.052734
2022-08-27T10:03:28.934Z,78.45459
2022-08-27T10:04:37.947Z,79.943848
2022-08-27T10:05:45.736Z,78.814697
2022-08-27T10:06:55.402Z,80.267334
2022-08-27T10:08:04.063Z,76.055908
2022-08-27T10:09:12.747Z,77.020264
2022-08-27T10:10:22.414Z,78.253174
2022-08-27T10:11:31.089Z,78.613281
2022-08-27T10:12:40.779Z,78.277588
2022-08-27T10:13:48.440Z,76.647949
2022-08-27T10:14:58.117Z,78.143311
2022-08-27T10:16:07.867Z,76.586914
2022-08-27T10:17:16.480Z,78.717041
2022-08-27T10:18:25.169Z,78.613281
2022-08-27T10:19:33.822Z,78.314209
2022-08-27T10:20:43.519Z,78.515625
2022-08-27T10:21:53.207Z,78.35083
2022-08-27T10:23:02.886Z,78.588867
2022-08-27T10:24:09.524Z,78.729248
2022-08-27T10:25:18.198Z,80.059814
2022-08-27T10:26:30.755Z,81.817627
2022-08-27T10:27:38.518Z,80.023193
2022-08-27T10:28:47.176Z,79.327393
2022-08-27T10:29:55.826Z,78.826904
2022-08-27T10:31:05.512Z,80.419922
2022-08-27T10:32:16.507Z,79.986572
2022-08-27T10:33:23.885Z,79.187012
2022-08-27T10:34:33.511Z,77.79541
2022-08-27T10:35:48.234Z,77.990723
2022-08-27T10:36:52.780Z,78.192139
2022-08-27T10:38:02.548Z,77.69165
2022-08-27T10:39:12.205Z,78.692627
2022-08-27T10:40:21.966Z,77.093506
2022-08-27T10:41:29.558Z,77.69165
2022-08-27T10:42:38.213Z,76.794434
2022-08-27T10:43:47.916Z,77.557373
2022-08-27T10:44:56.585Z,76.464844
2022-08-27T10:46:06.318Z,78.35083
2022-08-27T10:47:14.917Z,77.160645
2022-08-27T10:48:23.649Z,77.124023
2022-08-27T10:49:33.344Z,75.628662
2022-08-27T10:50:42.022Z,76.324463
2022-08-27T10:51:49.691Z,75.195312
2022-08-27T10:52:59.345Z,75.396729
2022-08-27T10:54:07.995Z,75.256348
2022-08-27T10:55:18.725Z,76.055908
2022-08-27T10:56:28.478Z,74.859619
2022-08-27T10:57:54.195Z,74.859619
2022-08-27T10:58:48.745Z,75.061035
2022-08-27T10:59:56.441Z,74.163818
2022-08-27T11:01:05.332Z,73.76709
2022-08-27T11:02:15.016Z,74.401855
2022-08-27T11:03:23.703Z,76.885986
2022-08-27T11:04:34.373Z,75.494385
2022-08-27T11:05:44.070Z,76.586914
2022-08-27T11:06:53.768Z,74.731445
2022-08-27T11:08:03.450Z,75.567627
2022-08-27T11:09:13.100Z,76.263428
2022-08-27T11:10:21.780Z,77.160645
2022-08-27T11:12:10.196Z,76.361084
2022-08-27T11:12:42.082Z,76.757812
2022-08-27T11:13:50.735Z,75.927734
2022-08-27T11:15:01.417Z,75.427246
2022-08-27T11:16:10.167Z,76.025391
2022-08-27T11:17:19.755Z,75.927734
2022-08-27T11:18:28.453Z,74.798584
2022-08-27T11:19:36.100Z,75.689697
2022-08-27T11:20:45.787Z,75.55542
2022-08-27T11:21:54.428Z,76.715088
2022-08-27T11:23:03.082Z,75.946045
2022-08-27T11:24:11.787Z,72.930908
2022-08-27T11:25:20.447Z,71.075439
2022-08-27T11:26:30.121Z,71.832275
2022-08-27T11:27:38.787Z,70.117188
2022-08-27T11:28:47.439Z,68.634033
2022-08-27T11:29:59.971Z,69.158936
2022-08-27T11:31:06.829Z,70.251465
2022-08-27T11:32:15.449Z,69.458008
2022-08-27T11:33:24.113Z,69.854736
2022-08-27T11:34:32.819Z,68.566895
2022-08-27T11:35:42.499Z,69.158936
2022-08-27T11:36:54.299Z,68.963623
2022-08-27T11:37:58.855Z,68.566895
2022-08-27T11:39:09.515Z,70.147705
2022-08-27T11:40:19.228Z,69.885254
2022-08-27T11:41:28.878Z,70.880127
2022-08-27T11:42:38.546Z,70.678711
2022-08-27T11:43:47.217Z,71.075439
2022-08-27T11:44:55.891Z,69.824219
2022-08-27T11:46:04.514Z,71.411133
2022-08-27T11:47:13.223Z,71.508789
2022-08-27T11:48:20.878Z,69.720459
2022-08-27T11:49:28.532Z,70.056152
2022-08-27T11:50:38.195Z,70.550537
2022-08-27T11:51:47.852Z,70.153809
2022-08-27T11:52:56.553Z,70.550537
2022-08-27T11:54:05.209Z,71.179199
2022-08-27T11:55:13.862Z,70.251465
2022-08-27T11:56:23.534Z,69.458008
2022-08-27T11:57:31.191Z,70.385742
2022-08-27T11:58:52.953Z,70.385742
2022-08-27T11:59:51.523Z,71.276855
2022-08-27T12:01:04.458Z,69.952393
2022-08-27T12:02:08.830Z,69.75708
2022-08-27T12:03:17.560Z,70.74585
2022-08-27T12:04:26.403Z,69.458008
2022-08-27T12:05:36.036Z,68.664551
2022-08-27T12:06:44.705Z,71.246338
2022-08-27T12:07:53.398Z,70.251465
2022-08-27T12:09:03.072Z,69.42749
2022-08-27T12:10:12.741Z,69.525146
2022-08-27T12:11:22.431Z,68.994141
2022-08-27T12:12:31.081Z,68.4021
2022-08-27T12:13:39.739Z,68.499756
2022-08-27T12:14:49.427Z,69.390869
2022-08-27T12:15:59.154Z,68.798828
2022-08-27T12:17:06.782Z,68.896484
2022-08-27T12:18:16.437Z,66.778564
2022-08-27T12:19:25.111Z,68.566895
2022-08-27T12:20:34.771Z,66.186523
2022-08-27T12:21:44.448Z,68.267822
2022-08-27T12:22:52.100Z,68.237305
2022-08-27T12:24:01.782Z,66.650391
2022-08-27T12:25:10.434Z,66.815186
2022-08-27T12:26:18.200Z,67.474365
2022-08-27T12:27:27.933Z,65.203857
2022-08-27T12:28:37.593Z,65.002441
2022-08-27T12:29:46.258Z,64.208984
2022-08-27T12:30:54.895Z,64.642334
2022-08-27T12:32:04.552Z,63.922119
2022-08-27T12:33:14.267Z,62.573242
2022-08-27T12:34:21.923Z,61.755371
2022-08-27T12:35:30.586Z,58.447266
2022-08-27T12:36:40.256Z,58.447266
2022-08-27T12:37:48.937Z,59.362793
2022-08-27T12:38:58.613Z,60.839844
2022-08-27T12:40:09.422Z,60.247803
2022-08-27T12:41:19.642Z,61.431885
2022-08-27T12:42:28.623Z,60.71167
2022-08-27T12:43:35.306Z,59.7229
2022-08-27T12:44:43.061Z,59.259033
2022-08-27T12:45:52.733Z,61.431885
2022-08-27T12:47:01.426Z,60.809326
2022-08-27T12:48:10.148Z,60.742188
2022-08-27T12:49:34.260Z,62.811279
2022-08-27T12:50:29.383Z,61.724854
2022-08-27T12:51:39.064Z,62.316895
2022-08-27T12:52:48.783Z,62.445068
2022-08-27T12:53:57.407Z,62.316895
2022-08-27T12:55:07.088Z,60.571289
2022-08-27T12:56:15.764Z,62.37793
2022-08-27T12:57:25.435Z,63.562012
2022-08-27T12:58:34.098Z,63.562012
2022-08-27T12:59:42.782Z,61.291504
2022-08-27T13:00:52.463Z,64.086914
2022-08-27T13:02:00.320Z,62.438965
2022-08-27T13:03:08.823Z,63.653564
2022-08-27T13:04:17.496Z,63.85498
2022-08-27T13:05:25.150Z,63.293457
2022-08-27T13:06:33.821Z,64.080811
2022-08-27T13:07:43.718Z,63.916016
2022-08-27T13:08:53.373Z,64.807129